Rp Zug — HE7351 — position and weather

sailwx.info

Track history (hours):
 
Tides and Currents Weather Stations Pressure Air Temp Water Temp Dewpoint Dewpoint Depression Visibility Wind Speed Wind Dir Waves Ship Positions

Rp Zug

Last reported at 2017-Sep-21 13:50 UTC. Time now 2017-Sep-21 14:29 UTC.
Position N 50°49' E 007°00'.

Length 110 m; draft 1.4 m.

Type: Tanker. MMSI: 269057351.

Date/timePositionNaut miles runAvg speedWind from/ knotsBaromVisibWave heightAir tempDewpointWater temp
2017-Sep-21 13:50N 50°49' E 007°00'0 0.0
2017-Sep-21 13:20N 50°49' E 006°60'0 0.0
2017-Sep-21 12:56N 50°49' E 006°60'0 0.0
2017-Sep-21 12:30N 50°49' E 006°60'0 0.0
2017-Sep-21 11:57N 50°49' E 006°60'0 0.0
2017-Sep-21 11:25N 50°49' E 006°60'1 0.0
2017-Sep-20 02:23N 50°49' E 007°02'410.7
2017-Sep-20 01:59N 50°46' E 007°06'510.7
2017-Sep-20 01:30N 50°41' E 007°10'  
2017-Sep-16 21:24N 50°41' E 007°11'3 5.2
2017-Sep-16 20:46N 50°43' E 007°08'1 5.1
2017-Sep-16 20:30N 50°44' E 007°07'3 5.3
2017-Sep-16 20:00N 50°46' E 007°04'2 5.0
2017-Sep-16 19:30N 50°48' E 007°02'1 2.5
2017-Sep-16 18:55N 50°49' E 007°00'0 0.0
2017-Sep-16 18:25N 50°49' E 007°00'0 0.0
2017-Sep-16 10:54N 50°49' E 007°00'0 0.0
2017-Sep-16 10:24N 50°49' E 007°00'0 0.9
2017-Sep-16 10:00N 50°50' E 006°60'4 8.6
2017-Sep-16 09:30N 50°46' E 007°04'  
2017-Sep-11 15:22N 50°41' E 007°11'3 5.1
2017-Sep-11 14:53N 50°43' E 007°08'2 4.9
2017-Sep-11 14:28N 50°45' E 007°06'3 5.4
2017-Sep-11 13:55N 50°47' E 007°03'  
Track history (hours):
 
Tides and Currents Weather Stations Pressure Air Temp Water Temp Dewpoint Dewpoint Depression Visibility Wind Speed Wind Dir Waves Ship Positions

Rp Zug

Last reported at 2017-Sep-21 13:50 UTC. Time now 2017-Sep-21 14:29 UTC.
Position N 50°49' E 007°00'.

Length 110 m; draft 1.4 m.

Type: Tanker. MMSI: 269057351.

Date/timePositionNaut miles runAvg speedWind from/ knotsBaromVisibWave heightAir tempDewpointWater temp
2017-Sep-21 13:50N 50°49' E 007°00'0 0.0
2017-Sep-21 13:20N 50°49' E 006°60'0 0.0
2017-Sep-21 12:56N 50°49' E 006°60'0 0.0
2017-Sep-21 12:30N 50°49' E 006°60'0 0.0
2017-Sep-21 11:57N 50°49' E 006°60'0 0.0
2017-Sep-21 11:25N 50°49' E 006°60'1 0.0
2017-Sep-20 02:23N 50°49' E 007°02'410.7
2017-Sep-20 01:59N 50°46' E 007°06'510.7
2017-Sep-20 01:30N 50°41' E 007°10'  
2017-Sep-16 21:24N 50°41' E 007°11'3 5.2
2017-Sep-16 20:46N 50°43' E 007°08'1 5.1
2017-Sep-16 20:30N 50°44' E 007°07'3 5.3
2017-Sep-16 20:00N 50°46' E 007°04'2 5.0
2017-Sep-16 19:30N 50°48' E 007°02'1 2.5
2017-Sep-16 18:55N 50°49' E 007°00'0 0.0
2017-Sep-16 18:25N 50°49' E 007°00'0 0.0
2017-Sep-16 10:54N 50°49' E 007°00'0 0.0
2017-Sep-16 10:24N 50°49' E 007°00'0 0.9
2017-Sep-16 10:00N 50°50' E 006°60'4 8.6
2017-Sep-16 09:30N 50°46' E 007°04'  
2017-Sep-11 15:22N 50°41' E 007°11'3 5.1
2017-Sep-11 14:53N 50°43' E 007°08'2 4.9
2017-Sep-11 14:28N 50°45' E 007°06'3 5.4
2017-Sep-11 13:55N 50°47' E 007°03'  

Dump ship's entire track history